Reynolds, North Dakota
Current Conditions -  °F | °C
As of 12:53 AM on Sunday 23 Nov 2014 (Local Time) from KGFK Reporting Station
Haze Haze  
Wind Chill: 25°   Ceiling: 600
Heat Index: 34°   Visibility: 6mi
Dew Point: 32°   Wind: 12mph
Humidity: 92%   Direction: 170°S
Pressure: 29.34"   Gusts: NA
Location:  47.67°N, 97.11°W
Report Text: KGFK 230653Z AUTO 17010KT 6SM BR OVC006 01/00 A2934 RMK AO2 SLP944 T00110000 TSNO
Loading
Personal Weather Stations






























Interactive Weather Map New forecast layout! Learn more

10-Day Weather Forecast

Advertisements
Track Severe Weather on mobile